Time;durP1;ratioP1;P1;durP2;ratioP2;P2;SDS_P1;SDS_P2;PMS_P1;PMS_P2;Temp;Humidity;BMP_temperature;BMP_pressure;BME280_temperature;BME280_humidity;BME280_pressure;Samples;Min_cycle;Max_cycle;Signal;HPM_P1;HPM_P2
2023/07/21 00:00:24;;;;;;;6.40;4.00;;;;;;;18.54;100.00;98999.42;108550;1251;60778;-58
2023/07/21 00:02:52;;;;;;;5.00;4.40;;;;;;;18.55;100.00;99002.23;108547;1251;60698;-58
2023/07/21 00:05:22;;;;;;;;;;;;;;;18.55;100.00;99003.45;108512;1251;72758;-58
2023/07/21 00:07:50;;;;;;;6.70;4.20;;;;;;;18.55;100.00;99003.81;108550;1251;69514;-58
2023/07/21 00:10:18;;;;;;;6.70;4.10;;;;;;;18.55;100.00;99004.17;108598;1251;73452;-58
2023/07/21 00:12:49;;;;;;;5.30;4.00;;;;;;;18.58;100.00;99006.75;108613;1253;61358;-58
2023/07/21 00:15:17;;;;;;;7.30;4.00;;;;;;;18.58;100.00;99008.46;108571;1252;59707;-58
2023/07/21 00:17:49;;;;;;;4.60;3.80;;;;;;;18.61;100.00;99009.44;108561;1252;73022;-58
2023/07/21 00:20:21;;;;;;;4.30;3.90;;;;;;;18.60;100.00;99011.16;108620;1252;69829;-58
2023/07/21 00:22:50;;;;;;;5.70;4.40;;;;;;;18.60;100.00;99006.34;108532;1252;72387;-57
2023/07/21 00:25:18;;;;;;;;;;;;;;;18.63;100.00;99007.71;108496;1253;61509;-57
2023/07/21 00:27:46;;;;;;;7.00;3.50;;;;;;;18.68;100.00;99009.98;108588;1255;59530;-58
2023/07/21 00:30:14;;;;;;;4.00;3.50;;;;;;;18.69;100.00;99010.75;108455;1253;73714;-58
2023/07/21 00:32:41;;;;;;;;;;;;;;;18.70;100.00;99011.55;108557;1251;69727;-59
2023/07/21 00:35:10;;;;;;;3.80;3.50;;;;;;;18.64;100.00;99008.66;108366;1253;72288;-58
2023/07/21 00:37:38;;;;;;;3.90;3.20;;;;;;;18.65;100.00;99010.40;108561;1253;62410;-55
2023/07/21 00:40:25;;;;;;;3.30;3.10;;;;;;;18.68;100.00;99001.42;108591;1253;60443;-57
2023/07/21 00:42:54;;;;;;;2.90;2.70;;;;;;;18.71;100.00;98997.26;108544;1253;73284;-58
2023/07/21 00:45:22;;;;;;;3.20;2.90;;;;;;;18.69;100.00;99001.48;108592;1253;69218;-58
2023/07/21 00:47:50;;;;;;;3.20;2.90;;;;;;;18.66;100.00;99003.48;108545;1253;72321;-58
2023/07/21 00:50:18;;;;;;;;;;;;;;;18.63;100.00;99009.68;108607;1252;61371;-58
2023/07/21 00:52:47;;;;;;;4.40;2.90;;;;;;;18.62;100.00;99004.42;108572;1252;59441;-58
2023/07/21 00:55:15;;;;;;;5.90;2.70;;;;;;;18.61;100.00;99004.50;108505;1253;73690;-58
2023/07/21 00:57:43;;;;;;;;;;;;;;;18.59;100.00;99002.41;108482;1253;70000;-58
2023/07/21 01:00:12;;;;;;;3.00;2.40;;;;;;;18.59;100.00;99002.77;108372;1252;72491;-57
2023/07/21 01:02:42;;;;;;;3.90;2.60;;;;;;;18.59;100.00;99004.64;108520;1253;61758;-58
2023/07/21 01:05:12;;;;;;;;;;;;;;;18.60;100.00;99013.08;108551;1253;59675;-58
2023/07/21 01:07:41;;;;;;;3.00;2.10;;;;;;;18.59;100.00;99011.61;108511;1253;72142;-58
2023/07/21 01:10:09;;;;;;;3.30;2.60;;;;;;;18.56;100.00;99014.14;108513;1251;70075;-58
2023/07/21 01:12:38;;;;;;;2.30;2.10;;;;;;;18.57;100.00;99020.52;108549;1251;72926;-58
2023/07/21 01:15:07;;;;;;;2.80;2.60;;;;;;;18.54;100.00;99025.50;107981;1253;62385;-58
2023/07/21 01:17:34;;;;;;;2.70;2.40;;;;;;;18.54;100.00;99022.48;108094;1252;58658;-57
2023/07/21 01:20:07;;;;;;;2.30;2.10;;;;;;;18.53;100.00;99021.20;108533;1252;72871;-58
2023/07/21 01:22:56;;;;;;;2.40;2.20;;;;;;;18.52;100.00;99024.85;108275;1252;69594;-58
2023/07/21 01:25:24;;;;;;;5.80;2.50;;;;;;;18.51;100.00;99027.36;108363;1253;72507;-58
2023/07/21 01:27:52;;;;;;;2.80;2.10;;;;;;;18.51;100.00;99031.83;108093;1253;61758;-58
2023/07/21 01:30:24;;;;;;;2.90;2.10;;;;;;;18.44;100.00;99030.26;108316;1253;58644;-58
2023/07/21 01:32:52;;;;;;;4.40;2.50;;;;;;;18.35;100.00;99031.77;107958;1251;73925;-58
2023/07/21 01:35:21;;;;;;;1.80;1.70;;;;;;;18.23;100.00;99030.77;108577;1251;70048;-58
2023/07/21 01:37:49;;;;;;;5.90;2.20;;;;;;;18.16;100.00;99029.11;108002;1251;73300;-58
2023/07/21 01:40:17;;;;;;;3.20;2.50;;;;;;;18.15;100.00;99033.57;108437;1253;61842;-57
2023/07/21 01:42:46;;;;;;;2.20;2.10;;;;;;;18.15;100.00;99037.02;108349;1252;60093;-58
2023/07/21 01:45:14;;;;;;;4.50;2.40;;;;;;;18.15;100.00;99041.58;108128;1253;74654;-58
2023/07/21 01:47:44;;;;;;;4.20;2.20;;;;;;;18.19;100.00;99044.11;108575;1252;69159;-58
2023/07/21 01:50:13;;;;;;;2.50;2.30;;;;;;;18.18;100.00;99049.98;108617;1251;73372;-58
2023/07/21 01:52:41;;;;;;;2.60;2.40;;;;;;;18.16;100.00;99047.94;108489;1253;61490;-58
2023/07/21 01:55:16;;;;;;;3.90;2.30;;;;;;;18.13;100.00;99048.00;108362;1252;59691;-58
2023/07/21 01:57:48;;;;;;;2.90;2.50;;;;;;;18.14;100.00;99051.98;108207;1253;73743;-57
2023/07/21 02:00:16;;;;;;;2.80;2.60;;;;;;;18.17;100.00;99050.14;108135;1253;69074;-58
2023/07/21 02:02:50;;;;;;;4.10;2.20;;;;;;;18.14;100.00;99059.27;108461;1253;72369;-58
2023/07/21 02:05:22;;;;;;;2.70;2.30;;;;;;;18.11;100.00;99064.64;108148;1253;61359;-58
2023/07/21 02:07:50;;;;;;;2.90;2.40;;;;;;;18.08;100.00;99060.77;108186;1252;60855;-58
2023/07/21 02:10:18;;;;;;;4.90;2.50;;;;;;;18.04;100.00;99065.86;108396;1251;73932;-57
2023/07/21 02:12:50;;;;;;;5.10;2.50;;;;;;;18.00;100.00;99064.14;108506;1251;69374;-57
2023/07/21 02:15:19;;;;;;;4.00;2.50;;;;;;;17.98;100.00;99072.09;108381;1253;72175;-57
2023/07/21 02:17:47;;;;;;;4.70;2.50;;;;;;;17.95;100.00;99071.97;108458;1252;62362;-57
2023/07/21 02:20:15;;;;;;;4.40;2.30;;;;;;;17.90;100.00;99074.14;108518;1251;59706;-58
2023/07/21 02:22:43;;;;;;;4.80;2.50;;;;;;;17.88;100.00;99072.30;108556;1251;74154;-57
2023/07/21 02:25:13;;;;;;;2.80;2.40;;;;;;;17.91;100.00;99077.66;108492;1252;70315;-58
2023/07/21 02:27:41;;;;;;;3.10;2.30;;;;;;;17.87;100.00;99083.42;108446;1251;72473;-57
2023/07/21 02:30:10;;;;;;;5.70;2.40;;;;;;;17.83;100.00;99085.66;108459;1253;62471;-57
2023/07/21 02:32:38;;;;;;;2.60;2.40;;;;;;;17.84;100.00;99086.70;108492;1251;59697;-58
2023/07/21 02:35:07;;;;;;;2.70;2.50;;;;;;;17.84;100.00;99088.98;108542;1253;73693;-58
2023/07/21 02:37:35;;;;;;;2.80;2.60;;;;;;;17.90;100.00;99090.11;108473;1253;69140;-57
2023/07/21 02:40:06;;;;;;;5.10;2.80;;;;;;;17.93;100.00;99094.13;108529;1252;72804;-58
2023/07/21 02:42:35;;;;;;;6.00;3.40;;;;;;;17.90;100.00;99097.94;108616;1252;61384;-58
2023/07/21 02:45:06;;;;;;;2.90;2.50;;;;;;;17.84;100.00;99099.59;108563;1252;60095;-58
2023/07/21 02:47:34;;;;;;;3.10;2.80;;;;;;;17.81;100.00;99101.61;108626;1251;74468;-58
2023/07/21 02:50:02;;;;;;;2.90;2.70;;;;;;;17.82;100.00;99099.77;108562;1252;69396;-58
2023/07/21 02:52:30;;;;;;;3.10;2.80;;;;;;;17.80;100.00;99102.24;108505;1252;72459;-58
2023/07/21 02:54:57;;;;;;;;;;;;;;;17.80;100.00;99104.86;108355;1251;61393;-58
2023/07/21 02:57:25;;;;;;;4.30;2.80;;;;;;;17.80;100.00;99109.71;108384;1251;59494;-57
2023/07/21 02:59:53;;;;;;;5.10;2.90;;;;;;;17.74;100.00;99109.98;108192;1252;74092;-56
2023/07/21 03:02:23;;;;;;;3.50;3.20;;;;;;;17.72;100.00;99108.02;108144;1253;69136;-57
2023/07/21 03:04:51;;;;;;;3.20;2.90;;;;;;;17.70;100.00;99103.04;108223;1253;72489;-56
2023/07/21 03:07:20;;;;;;;3.50;3.20;;;;;;;17.70;100.00;99099.68;108149;1253;61694;-57
2023/07/21 03:09:54;;;;;;;5.10;3.60;;;;;;;17.72;100.00;99102.17;108218;1252;59676;-57
2023/07/21 03:12:24;;;;;;;3.70;3.20;;;;;;;17.74;100.00;99102.04;108340;1253;73630;-57
2023/07/21 03:15:05;;;;;;;4.80;3.50;;;;;;;17.75;100.00;99104.22;108497;1251;69096;-57
2023/07/21 03:17:49;;;;;;;3.90;3.40;;;;;;;17.76;100.00;99099.89;108360;1251;72948;-57
2023/07/21 03:20:17;;;;;;;4.90;3.70;;;;;;;17.79;100.00;99107.79;108401;1255;61514;-57
2023/07/21 03:22:46;;;;;;;5.00;4.40;;;;;;;17.79;100.00;99114.95;108284;1251;60765;-57
2023/07/21 03:25:13;;;;;;;4.50;4.00;;;;;;;17.79;100.00;99113.67;108421;1251;73685;-57
2023/07/21 03:27:41;;;;;;;4.20;3.80;;;;;;;17.81;100.00;99115.59;108395;1253;68114;-60
2023/07/21 03:30:10;;;;;;;4.50;4.10;;;;;;;17.82;100.00;99128.31;108493;1253;72396;-56
2023/07/21 03:32:45;;;;;;;4.10;3.70;;;;;;;17.83;100.00;99139.02;108372;1254;61778;-56
2023/07/21 03:35:14;;;;;;;5.80;4.10;;;;;;;17.89;100.00;99143.41;108410;1253;59664;-55
2023/07/21 03:37:43;;;;;;;4.60;4.20;;;;;;;17.93;100.00;99138.98;108354;1252;72703;-56
2023/07/21 03:40:11;;;;;;;5.40;3.70;;;;;;;17.94;100.00;99140.48;108572;1252;69302;-56
2023/07/21 03:42:38;;;;;;;;;;;;;;;17.97;100.00;99145.41;108354;1252;72943;-56
2023/07/21 03:45:08;;;;;;;4.20;3.80;;;;;;;17.99;100.00;99150.00;108242;1251;61544;-56
2023/07/21 03:47:36;;;;;;;5.00;4.40;;;;;;;18.00;100.00;99149.23;108440;1251;58666;-55
2023/07/21 03:50:07;;;;;;;4.50;4.10;;;;;;;18.01;100.00;99144.76;108238;1252;72646;-56
2023/07/21 03:52:35;;;;;;;4.90;4.10;;;;;;;18.05;100.00;99147.39;108365;1251;69194;-56
2023/07/21 03:55:03;;;;;;;;;;;;;;;18.06;100.00;99147.67;108436;1253;72801;-55
2023/07/21 03:57:32;;;;;;;4.40;3.80;;;;;;;18.07;100.00;99149.91;108439;1251;61757;-56
2023/07/21 04:00:00;;;;;;;5.10;4.20;;;;;;;18.07;100.00;99155.59;108529;1256;59707;-55
2023/07/21 04:02:29;;;;;;;5.60;3.90;;;;;;;18.07;100.00;99159.85;108496;1251;72689;-56
2023/07/21 04:04:57;;;;;;;;;;;;;;;18.03;100.00;99161.73;108385;1251;69096;-55
2023/07/21 04:07:25;;;;;;;;;;;;;;;18.01;100.00;99170.04;108518;1254;71467;-56
2023/07/21 04:09:55;;;;;;;4.50;4.10;;;;;;;18.04;100.00;99170.21;108314;1258;61425;-59
2023/07/21 04:12:23;;;;;;;5.70;4.30;;;;;;;18.05;100.00;99177.16;108525;1253;60664;-56
2023/07/21 04:14:51;;;;;;;8.40;5.60;;;;;;;18.13;100.00;99183.98;108595;1250;74592;-56
2023/07/21 04:17:18;;;;;;;6.40;5.00;;;;;;;18.18;100.00;99188.73;108485;1250;69391;-56
2023/07/21 04:19:46;;;;;;;4.60;4.20;;;;;;;18.20;100.00;99192.66;108392;1251;72547;-56
2023/07/21 04:22:14;;;;;;;4.10;3.80;;;;;;;18.25;100.00;99195.20;108344;1251;62238;-55
2023/07/21 04:24:41;;;;;;;8.30;4.00;;;;;;;18.33;100.00;99191.46;108306;1251;59743;-56
2023/07/21 04:27:09;;;;;;;5.60;4.90;;;;;;;18.37;100.00;99200.90;108361;1251;73094;-55
2023/07/21 04:29:37;;;;;;;6.30;4.20;;;;;;;18.37;100.00;99206.55;108398;1250;68146;-56
2023/07/21 04:32:06;;;;;;;4.40;4.00;;;;;;;18.38;100.00;99206.41;108518;1254;72376;-56
2023/07/21 04:34:35;;;;;;;4.80;4.30;;;;;;;18.39;100.00;99207.73;108365;1255;61500;-56
2023/07/21 04:37:03;;;;;;;4.40;4.10;;;;;;;18.43;100.00;99209.38;108427;1253;59119;-56
2023/07/21 04:39:34;;;;;;;5.80;4.00;;;;;;;18.49;100.00;99207.48;108319;1250;73734;-56
2023/07/21 04:42:02;;;;;;;4.60;4.10;;;;;;;18.53;100.00;99207.14;108527;1251;69258;-56
2023/07/21 04:44:30;;;;;;;4.30;3.90;;;;;;;18.58;100.00;99207.10;108472;1250;72369;-57
2023/07/21 04:46:58;;;;;;;4.40;3.90;;;;;;;18.66;100.00;99214.39;108354;1251;61374;-56
2023/07/21 04:49:33;;;;;;;5.20;3.60;;;;;;;18.72;100.00;99218.75;108409;1250;60699;-56
2023/07/21 04:52:03;;;;;;;4.10;3.70;;;;;;;18.67;100.00;99218.07;108407;1251;74067;-55
2023/07/21 04:54:31;;;;;;;5.00;3.60;;;;;;;18.65;100.00;99222.52;108459;1251;68220;-55
2023/07/21 04:56:59;;;;;;;4.30;3.70;;;;;;;18.61;100.00;99226.17;108351;1250;72923;-55
2023/07/21 04:59:28;;;;;;;5.00;3.60;;;;;;;18.58;100.00;99225.39;108223;1256;61506;-56
2023/07/21 05:01:56;;;;;;;4.20;3.50;;;;;;;18.63;100.00;99224.98;108234;1251;59693;-55
2023/07/21 05:04:24;;;;;;;6.60;3.80;;;;;;;18.70;100.00;99225.10;108415;1251;73692;-56
2023/07/21 05:06:52;;;;;;;5.00;3.70;;;;;;;18.82;100.00;99233.33;108266;1253;68415;-56
2023/07/21 05:09:20;;;;;;;;;;;;;;;18.92;100.00;99240.89;108193;1251;72345;-55
2023/07/21 05:11:48;;;;;;;5.80;3.70;;;;;;;18.95;100.00;99241.11;108209;1251;61589;-55
2023/07/21 05:14:33;;;;;;;5.70;3.90;;;;;;;18.93;100.00;99239.75;108379;1252;59691;-56
2023/07/21 05:17:20;;;;;;;4.20;3.80;;;;;;;18.90;100.00;99241.96;108503;1251;73598;-56
2023/07/21 05:20:05;;;;;;;4.20;3.60;;;;;;;18.88;100.00;99244.56;108320;1251;69494;-55
2023/07/21 05:22:52;;;;;;;8.90;3.90;;;;;;;18.93;100.00;99250.42;108474;1251;72858;-55
2023/07/21 05:25:37;;;;;;;4.40;3.40;;;;;;;18.95;100.00;99251.30;108324;1251;62584;-56
2023/07/21 05:28:04;;;;;;;5.00;3.70;;;;;;;18.99;100.00;99251.98;108553;1250;58788;-55
2023/07/21 05:30:36;;;;;;;3.50;3.20;;;;;;;19.04;100.00;99250.33;108406;1252;74049;-55
2023/07/21 05:33:04;;;;;;;3.70;3.40;;;;;;;19.15;100.00;99261.71;108426;1251;69853;-55
2023/07/21 05:35:32;;;;;;;3.90;3.10;;;;;;;19.17;100.00;99260.78;108263;1252;73457;-56
2023/07/21 05:38:09;;;;;;;5.70;3.60;;;;;;;19.15;100.00;99259.54;108404;1251;61552;-55
2023/07/21 05:40:37;;;;;;;4.20;3.40;;;;;;;19.12;100.00;99257.83;108352;1251;60140;-57
2023/07/21 05:43:05;;;;;;;;;;;;;;;19.12;100.00;99257.67;108301;1254;74634;-55
2023/07/21 05:45:36;;;;;;;;;;;;;;;19.08;100.00;99258.41;108233;1250;69210;-55
2023/07/21 05:48:04;;;;;;;4.80;3.80;;;;;;;19.08;100.00;99260.83;108266;1254;72357;-56
2023/07/21 05:50:36;;;;;;;3.90;3.50;;;;;;;19.10;100.00;99261.80;108106;1251;61856;-55
2023/07/21 05:53:06;;;;;;;4.70;3.40;;;;;;;19.14;100.00;99263.34;108354;1251;59317;-55
2023/07/21 05:55:33;;;;;;;3.30;2.90;;;;;;;19.22;100.00;99267.10;108454;1252;73597;-55
2023/07/21 05:58:01;;;;;;;3.90;3.60;;;;;;;19.32;100.00;99271.96;108384;1250;70144;-55
2023/07/21 06:00:29;;;;;;;4.10;3.70;;;;;;;19.35;100.00;99265.13;108453;1250;72374;-55
2023/07/21 06:02:58;;;;;;;4.90;3.60;;;;;;;19.33;100.00;99266.34;108443;1251;61437;-56
2023/07/21 06:05:26;;;;;;;4.40;3.10;;;;;;;19.40;100.00;99264.92;108494;1251;59695;-55
2023/07/21 06:08:27;;;;;;;6.30;3.50;;;;;;;19.49;100.00;99262.20;108394;1251;74536;-55
2023/07/21 06:11:15;;;;;;;7.20;4.10;;;;;;;19.56;100.00;99264.98;108531;1251;69570;-56
2023/07/21 06:14:03;;;;;;;6.20;3.90;;;;;;;19.68;100.00;99264.67;108464;1251;72425;-56
2023/07/21 06:16:37;;;;;;;5.30;3.40;;;;;;;19.76;100.00;99262.86;108488;1251;60507;-55
2023/07/21 06:19:05;;;;;;;;;;;;;;;19.86;100.00;99264.35;108509;1251;60105;-55
2023/07/21 06:21:33;;;;;;;4.30;3.90;;;;;;;19.91;100.00;99266.05;108579;1251;74603;-55
2023/07/21 06:24:00;;;;;;;5.20;4.00;;;;;;;19.92;100.00;99268.98;108413;1251;70013;-55
2023/07/21 06:26:28;;;;;;;4.90;3.80;;;;;;;19.95;100.00;99272.82;108611;1251;72474;-56
2023/07/21 06:28:57;;;;;;;4.80;3.70;;;;;;;19.97;100.00;99271.90;108587;1251;60531;-55
2023/07/21 06:31:25;;;;;;;4.20;3.70;;;;;;;19.99;100.00;99269.05;108370;1251;60361;-55
2023/07/21 06:34:13;;;;;;;5.10;3.30;;;;;;;20.05;100.00;99268.36;108008;1251;74121;-55
2023/07/21 06:36:59;;;;;;;5.10;3.20;;;;;;;20.09;100.00;99275.14;108516;1251;69090;-55
2023/07/21 06:39:48;;;;;;;4.70;3.30;;;;;;;20.20;100.00;99276.14;108628;1251;73388;-55
2023/07/21 06:42:45;;;;;;;3.90;3.50;;;;;;;20.25;100.00;99276.55;108381;1253;62405;-55
2023/07/21 06:45:51;;;;;;;5.10;2.80;;;;;;;20.24;100.00;99273.81;108214;1251;60750;-55
2023/07/21 06:48:29;;;;;;;3.70;3.20;;;;;;;20.28;100.00;99276.50;108585;1250;73902;-56
2023/07/21 06:51:09;;;;;;;3.60;2.80;;;;;;;20.36;100.00;99279.89;108459;1251;69150;-55
2023/07/21 06:53:36;;;;;;;;;;;;;;;20.50;100.00;99282.91;108376;1254;73374;-55
2023/07/21 06:56:04;;;;;;;2.70;2.40;;;;;;;20.64;100.00;99283.60;108362;1251;61492;-56
2023/07/21 06:58:32;;;;;;;4.50;3.00;;;;;;;20.77;100.00;99288.10;108467;1251;59804;-56
2023/07/21 07:01:00;;;;;;;5.30;3.10;;;;;;;20.91;100.00;99283.69;108116;1254;74520;-56
2023/07/21 07:03:29;;;;;;;3.60;2.50;;;;;;;20.99;100.00;99283.98;108523;1251;69387;-56
2023/07/21 07:05:59;;;;;;;3.40;2.80;;;;;;;21.10;100.00;99289.13;108276;1252;71851;-56
2023/07/21 07:08:26;;;;;;;4.20;2.50;;;;;;;21.24;100.00;99290.96;108349;1251;61633;-55
2023/07/21 07:10:54;;;;;;;2.80;2.50;;;;;;;21.30;100.00;99288.58;108490;1251;60673;-55
2023/07/21 07:13:22;;;;;;;2.40;2.20;;;;;;;21.32;100.00;99286.63;108420;1251;73952;-56
2023/07/21 07:15:50;;;;;;;3.90;2.00;;;;;;;21.38;100.00;99288.97;108510;1251;70430;-56
2023/07/21 07:18:18;;;;;;;3.60;2.40;;;;;;;21.51;100.00;99284.15;108552;1252;72622;-56
2023/07/21 07:20:50;;;;;;;2.60;2.20;;;;;;;21.69;100.00;99287.17;108547;1251;61455;-56
2023/07/21 07:23:18;;;;;;;3.10;2.50;;;;;;;21.76;100.00;99282.34;108539;1251;60798;-56
2023/07/21 07:25:50;;;;;;;3.80;2.30;;;;;;;21.79;100.00;99281.52;108633;1251;73772;-56
2023/07/21 07:28:18;;;;;;;4.30;1.90;;;;;;;21.90;100.00;99282.31;108402;1251;69452;-55
2023/07/21 07:30:47;;;;;;;2.10;1.80;;;;;;;22.04;100.00;99275.11;108575;1253;71767;-56
2023/07/21 07:33:15;;;;;;;3.20;2.10;;;;;;;22.15;100.00;99278.69;108561;1253;62041;-56
2023/07/21 07:35:52;;;;;;;2.40;2.00;;;;;;;22.19;100.00;99275.29;108558;1251;59683;-56
2023/07/21 07:38:24;;;;;;;;;;;;;;;22.08;100.00;99282.91;108552;1251;73629;-56
2023/07/21 07:40:52;;;;;;;4.10;1.70;;;;;;;21.91;100.00;99283.27;108556;1251;69413;-56
2023/07/21 07:43:19;;;;;;;1.80;1.70;;;;;;;21.82;100.00;99287.00;108471;1253;72355;-57
2023/07/21 07:45:47;;;;;;;;;;;;;;;21.83;100.00;99287.80;108506;1251;61396;-56
2023/07/21 07:48:15;;;;;;;3.10;2.10;;;;;;;21.79;100.00;99283.85;108346;1251;59368;-57
2023/07/21 07:50:43;;;;;;;3.00;1.60;;;;;;;21.90;100.00;99285.56;108522;1251;73049;-56
2023/07/21 07:53:11;;;;;;;;;;;;;;;22.05;100.00;99288.05;108405;1251;68606;-56
2023/07/21 07:55:40;;;;;;;2.40;1.30;;;;;;;22.18;100.00;99287.66;108484;1251;73304;-56
2023/07/21 07:58:08;;;;;;;4.00;1.90;;;;;;;22.30;100.00;99284.70;108556;1252;61642;-56
2023/07/21 08:00:38;;;;;;;1.70;1.20;;;;;;;22.40;100.00;99284.64;108568;1251;59702;-56
2023/07/21 08:03:06;;;;;;;1.50;1.40;;;;;;;22.42;100.00;99286.57;108517;1253;73639;-56
2023/07/21 08:05:34;;;;;;;1.80;1.30;;;;;;;22.48;100.00;99290.60;108551;1251;69157;-56
2023/07/21 08:08:02;;;;;;;;;;;;;;;22.56;100.00;99292.39;108541;1254;72500;-56
2023/07/21 08:10:30;;;;;;;3.90;1.60;;;;;;;22.65;100.00;99295.02;108531;1251;61750;-56
2023/07/21 08:12:58;;;;;;;;;;;;;;;22.77;100.00;99297.22;108549;1251;60692;-56
2023/07/21 08:15:26;;;;;;;2.60;1.40;;;;;;;22.83;100.00;99293.98;108506;1254;73729;-56
2023/07/21 08:17:53;;;;;;;;;;;;;;;22.81;100.00;99295.81;108569;1253;69145;-56
2023/07/21 08:20:21;;;;;;;;;;;;;;;22.79;100.00;99297.64;108564;1251;72320;-56
2023/07/21 08:22:50;;;;;;;1.60;1.50;;;;;;;22.77;100.00;99291.05;108485;1254;61435;-56
2023/07/21 08:25:18;;;;;;;2.80;1.40;;;;;;;22.79;100.00;99286.67;108630;1252;59725;-56
2023/07/21 08:33:06;;;;;;;4.40;1.40;;;;;;;23.01;100.00;99281.48;101125;1299;601979;-56
2023/07/21 08:35:34;;;;;;;1.10;1.00;;;;;;;23.07;100.00;99281.27;103561;1272;61443;-56
2023/07/21 08:38:02;;;;;;;1.30;1.20;;;;;;;23.17;100.00;99284.50;103538;1267;59849;-56
2023/07/21 08:40:30;;;;;;;1.30;1.20;;;;;;;23.31;100.00;99284.77;103509;1279;71966;-56
2023/07/21 08:42:59;;;;;;;2.00;1.50;;;;;;;23.45;100.00;99289.03;103565;1273;69128;-56
2023/07/21 08:45:29;;;;;;;2.40;1.60;;;;;;;23.50;100.00;99292.11;103385;1288;72570;-56
2023/07/21 08:48:00;;;;;;;2.40;1.60;;;;;;;23.44;100.00;99294.52;103363;1279;62346;-56
2023/07/21 08:50:28;;;;;;;2.00;1.40;;;;;;;23.43;100.00;99291.23;103769;1264;60771;-55
2023/07/21 08:52:55;;;;;;;1.40;1.30;;;;;;;23.42;100.00;99292.20;103779;1273;72471;-55
2023/07/21 08:55:25;;;;;;;2.30;1.20;;;;;;;23.46;100.00;99297.18;103946;1268;69452;-55
2023/07/21 08:58:00;;;;;;;1.70;1.20;;;;;;;23.55;100.00;99296.42;103794;1270;71407;-56
2023/07/21 09:00:28;;;;;;;1.50;1.40;;;;;;;23.65;100.00;99297.32;103908;1270;61525;-54
2023/07/21 09:03:00;;;;;;;;;;;;;;;23.73;100.00;99299.41;106908;1263;59796;-55
2023/07/21 09:05:27;;;;;;;2.20;1.20;;;;;;;23.80;100.00;99297.00;104849;1268;73696;-55
2023/07/21 09:07:55;;;;;;;1.40;1.20;;;;;;;23.85;100.00;99293.34;104155;1271;69554;-54
2023/07/21 09:10:30;;;;;;;;;;;;;;;23.97;100.00;99297.02;103848;1266;73294;-54
2023/07/21 09:12:58;;;;;;;1.40;1.30;;;;;;;24.11;100.00;99296.25;104162;1269;59816;-54
2023/07/21 09:15:26;;;;;;;1.70;1.10;;;;;;;24.19;100.00;99299.70;104306;1269;59788;-54
2023/07/21 09:17:54;;;;;;;2.30;1.20;;;;;;;24.22;100.00;99301.14;103847;1268;72648;-54
2023/07/21 09:20:22;;;;;;;;;;;;;;;24.17;100.00;99299.33;103908;1269;69663;-55
2023/07/21 09:22:50;;;;;;;1.40;1.30;;;;;;;24.16;100.00;99296.07;103908;1269;72440;-56
2023/07/21 09:25:21;;;;;;;1.50;1.00;;;;;;;24.20;100.00;99293.23;103874;1272;60761;-55
2023/07/21 09:27:55;;;;;;;1.40;1.10;;;;;;;24.30;100.00;99292.02;103877;1268;59805;-54
2023/07/21 09:33:23;;;;;;;1.40;0.90;;;;;;;23.86;100.00;99291.31;101444;1296;600768;-55
2023/07/21 09:36:12;;;;;;;1.20;1.20;;;;;;;24.05;100.00;99290.22;103866;1265;60348;-55
2023/07/21 09:38:40;;;;;;;2.50;1.10;;;;;;;24.11;100.00;99292.76;103909;1280;60084;-56
2023/07/21 09:41:09;;;;;;;;;;;;;;;24.23;100.00;99292.27;103584;1288;71955;-55
2023/07/21 09:43:37;;;;;;;1.20;0.90;;;;;;;24.35;100.00;99293.02;103663;1269;69257;-56
2023/07/21 09:46:07;;;;;;;2.50;0.90;;;;;;;24.47;100.00;99290.98;103657;1267;293489;-56
2023/07/21 09:48:38;;;;;;;1.50;1.10;;;;;;;24.66;100.00;99291.52;104397;1264;59961;-56
2023/07/21 09:51:10;;;;;;;2.10;1.40;;;;;;;24.79;100.00;99293.64;103962;1264;61141;-56
2023/07/21 09:53:39;;;;;;;1.40;1.20;;;;;;;24.81;100.00;99294.04;108611;1251;72018;-57
2023/07/21 09:56:08;;;;;;;3.10;0.90;;;;;;;24.77;100.00;99299.44;105372;1251;70460;-56
2023/07/21 09:58:44;;;;;;;3.30;0.90;;;;;;;24.85;100.00;99302.19;104462;1253;72480;-57
2023/07/21 10:01:12;;;;;;;2.30;1.00;;;;;;;24.98;98.61;99304.79;104299;1252;59801;-56
2023/07/21 10:03:41;;;;;;;2.60;1.60;;;;;;;24.92;95.91;99304.50;104410;1257;60679;-56
2023/07/21 10:06:09;;;;;;;4.10;1.10;;;;;;;24.82;98.97;99307.27;104377;1258;72975;-56
2023/07/21 10:08:37;;;;;;;;;;;;;;;24.81;95.81;99304.15;104392;1251;69566;-56
2023/07/21 10:11:07;;;;;;;1.60;1.20;;;;;;;24.82;95.74;99305.29;104288;1256;72893;-56
2023/07/21 10:13:42;;;;;;;4.10;1.10;;;;;;;24.86;97.67;99311.02;104434;1254;60152;-57
2023/07/21 10:16:10;;;;;;;1.40;0.90;;;;;;;24.92;98.43;99309.63;104507;1254;59801;-56
2023/07/21 10:18:59;;;;;;;;;;;;;;;25.06;96.73;99315.34;104436;1258;73718;-56
2023/07/21 10:21:31;;;;;;;2.80;0.90;;;;;;;25.19;89.21;99307.52;104315;1264;69381;-56
2023/07/21 10:24:03;;;;;;;5.40;1.10;;;;;;;25.21;96.83;99311.05;104279;1251;73303;-56
2023/07/21 10:26:31;;;;;;;1.10;1.10;;;;;;;25.22;98.20;99317.16;104376;1253;60162;-56
2023/07/21 10:29:15;;;;;;;2.00;1.00;;;;;;;25.27;97.45;99318.08;104387;1261;60383;-55
2023/07/21 10:31:50;;;;;;;1.80;1.20;;;;;;;25.30;87.74;99318.50;104621;1267;72803;-56
2023/07/21 10:34:18;;;;;;;2.40;0.80;;;;;;;25.19;84.35;99319.79;104337;1257;70190;-55
2023/07/21 10:37:04;;;;;;;;;;;;;;;25.12;84.27;99318.84;104394;1257;72501;-55
2023/07/21 10:39:34;;;;;;;1.30;0.90;;;;;;;25.02;85.61;99316.11;104464;1257;59801;-55
2023/07/21 10:42:03;;;;;;;1.40;1.10;;;;;;;25.00;88.66;99318.13;104428;1251;59654;-55
2023/07/21 10:44:43;;;;;;;1.30;1.00;;;;;;;25.04;87.24;99317.52;104427;1256;73688;-55
2023/07/21 10:47:18;;;;;;;1.70;1.00;;;;;;;25.09;89.40;99319.64;104355;1260;69007;-55
2023/07/21 10:49:47;;;;;;;1.00;0.80;;;;;;;25.12;89.17;99321.52;104418;1267;72373;-56
2023/07/21 10:52:15;;;;;;;1.50;0.90;;;;;;;25.14;92.71;99325.70;104387;1251;59739;-56
2023/07/21 10:54:43;;;;;;;1.00;0.90;;;;;;;25.07;91.41;99319.57;104364;1251;59638;-56
2023/07/21 10:57:11;;;;;;;2.80;0.80;;;;;;;25.01;93.65;99316.18;104412;1256;72742;-57
2023/07/21 10:59:39;;;;;;;0.80;0.80;;;;;;;25.04;95.80;99316.05;104545;1257;70138;-55
2023/07/21 11:02:07;;;;;;;;;;;;;;;25.14;88.56;99317.36;104392;1267;72465;-55
2023/07/21 11:04:38;;;;;;;2.50;0.80;;;;;;;25.20;86.11;99315.88;108559;1251;60240;-55
2023/07/21 11:07:06;;;;;;;1.00;0.80;;;;;;;25.30;89.34;99314.36;105391;1251;59755;-54
2023/07/21 11:09:36;;;;;;;1.60;0.90;;;;;;;25.50;81.37;99309.34;104416;1256;72887;-57
2023/07/21 11:12:05;;;;;;;1.30;0.80;;;;;;;25.65;83.05;99313.23;104576;1257;69074;-55
2023/07/21 11:14:32;;;;;;;0.90;0.80;;;;;;;25.79;79.48;99314.84;104525;1254;72309;-55
2023/07/21 11:17:01;;;;;;;1.40;1.10;;;;;;;25.80;79.05;99317.66;104688;1254;59793;-55
2023/07/21 11:19:32;;;;;;;1.20;0.80;;;;;;;25.74;77.68;99319.23;104349;1254;59947;-55
2023/07/21 11:22:00;;;;;;;2.80;0.90;;;;;;;25.71;78.64;99318.48;104400;1256;73757;-55
2023/07/21 11:24:29;;;;;;;0.70;0.70;;;;;;;25.69;83.60;99311.58;104417;1267;69963;-58
2023/07/21 11:27:08;;;;;;;1.50;0.90;;;;;;;25.68;83.15;99310.05;104329;1257;72342;-55
2023/07/21 11:29:40;;;;;;;2.70;0.90;;;;;;;25.64;82.50;99310.77;104343;1256;60023;-55
2023/07/21 11:32:19;;;;;;;0.80;0.80;;;;;;;25.67;80.55;99307.40;104477;1263;59708;-54
2023/07/21 11:34:57;;;;;;;0.90;0.90;;;;;;;25.79;81.27;99307.16;104401;1255;73669;-54
2023/07/21 11:37:25;;;;;;;1.90;1.80;;;;;;;25.84;72.80;99315.44;104379;1254;69179;-54
2023/07/21 11:39:55;;;;;;;1.00;1.00;;;;;;;25.75;68.61;99313.48;104331;1267;72339;-55
2023/07/21 11:42:23;;;;;;;0.70;0.70;;;;;;;25.71;70.07;99309.27;104396;1254;59870;-54
2023/07/21 11:44:52;;;;;;;1.10;1.00;;;;;;;25.72;69.77;99307.09;104403;1251;60127;-55
2023/07/21 11:47:20;;;;;;;1.20;0.90;;;;;;;25.73;70.10;99312.48;104373;1257;72727;-54